createdAt,value
2019-02-23T00:01:59.512Z,11.90
2019-02-23T00:04:34.499Z,12.10
2019-02-23T00:11:49.323Z,12.30
2019-02-23T00:17:37.343Z,14.30
2019-02-23T00:20:50.051Z,13.50
2019-02-23T00:34:30.573Z,13.40
2019-02-23T00:38:05.993Z,13.60
2019-02-23T00:41:03.021Z,12.57
2019-02-23T00:47:14.727Z,12.47
2019-02-23T00:50:14.317Z,14.13
2019-02-23T00:53:08.538Z,13.60
2019-02-23T00:55:43.428Z,14.17
2019-02-23T00:58:18.379Z,13.53
2019-02-23T01:00:53.936Z,14.33
2019-02-23T01:03:28.847Z,15.10
2019-02-23T01:06:03.773Z,14.80
2019-02-23T01:08:38.613Z,14.60
2019-02-23T01:11:31.527Z,14.33
2019-02-23T01:14:07.277Z,13.80
2019-02-23T01:17:03.308Z,15.10
2019-02-23T01:19:51.497Z,15.20
2019-02-23T01:26:21.917Z,15.60
2019-02-23T01:29:56.583Z,15.33
2019-02-23T01:32:51.397Z,16.03
2019-02-23T01:35:26.271Z,16.27
2019-02-23T01:41:52.269Z,17.87
2019-02-23T01:44:28.019Z,20.00
2019-02-23T01:53:16.293Z,19.37
2019-02-23T02:00:35.653Z,18.87
2019-02-23T02:25:09.256Z,21.70
2019-02-23T02:35:38.924Z,18.40
2019-02-23T02:53:22.240Z,19.20
2019-02-23T03:03:58.764Z,21.00
2019-02-23T03:10:43.142Z,22.73
2019-02-23T03:13:18.968Z,21.83
2019-02-23T03:16:39.281Z,18.57
2019-02-23T03:19:58.692Z,19.63
2019-02-23T03:22:34.558Z,18.83
2019-02-23T03:25:09.658Z,18.53
2019-02-23T03:31:01.683Z,19.30
2019-02-23T03:41:27.463Z,19.20
2019-02-23T03:44:03.184Z,19.70
2019-02-23T03:46:39.553Z,21.43
2019-02-23T03:49:14.432Z,20.10
2019-02-23T03:51:49.460Z,20.33
2019-02-23T03:54:24.410Z,18.80
2019-02-23T03:56:59.462Z,19.53
2019-02-23T03:59:35.716Z,18.20
2019-02-23T04:02:10.614Z,18.87
2019-02-23T04:04:45.516Z,19.00
2019-02-23T04:07:21.280Z,17.50
2019-02-23T04:09:56.142Z,19.50
2019-02-23T04:12:32.461Z,18.20
2019-02-23T04:15:09.936Z,17.63
2019-02-23T04:18:02.965Z,18.60
2019-02-23T04:21:01.882Z,17.90
2019-02-23T04:23:35.307Z,18.30
2019-02-23T04:26:11.190Z,18.20
2019-02-23T04:28:51.286Z,18.20
2019-02-23T04:31:37.442Z,17.77
2019-02-23T04:34:30.866Z,17.83
2019-02-23T04:37:06.582Z,18.73
2019-02-23T04:52:00.797Z,17.50
2019-02-23T04:54:43.696Z,18.47
2019-02-23T04:57:19.421Z,16.87
2019-02-23T05:01:00.194Z,18.30
2019-02-23T05:03:03.482Z,18.00
2019-02-23T05:05:40.011Z,17.30
2019-02-23T05:08:35.043Z,17.87
2019-02-23T05:14:49.789Z,17.23
2019-02-23T05:29:27.686Z,18.03
2019-02-23T05:32:28.092Z,15.87
2019-02-23T05:37:58.796Z,16.00
2019-02-23T05:40:56.673Z,17.87
2019-02-23T05:43:37.176Z,17.80
2019-02-23T05:46:12.168Z,17.33
2019-02-23T05:48:47.094Z,17.37
2019-02-23T05:51:22.092Z,16.60
2019-02-23T05:53:57.020Z,17.23
2019-02-23T06:03:04.132Z,16.20
2019-02-23T06:05:42.293Z,17.30
2019-02-23T06:08:19.038Z,17.03
2019-02-23T06:11:00.538Z,16.27
2019-02-23T06:13:35.486Z,17.07
2019-02-23T06:16:10.926Z,17.80
2019-02-23T06:19:07.025Z,16.80
2019-02-23T06:21:55.379Z,17.50
2019-02-23T06:25:09.714Z,19.87
2019-02-23T06:27:45.816Z,17.20
2019-02-23T06:38:58.340Z,17.07
2019-02-23T06:41:44.947Z,17.50
2019-02-23T06:44:43.306Z,16.07
2019-02-23T06:47:18.554Z,17.27
2019-02-23T06:53:04.090Z,17.10
2019-02-23T06:55:50.099Z,15.90
2019-02-23T06:58:24.991Z,15.63
2019-02-23T07:01:03.846Z,16.10
2019-02-23T07:03:39.648Z,15.40
2019-02-23T07:06:14.531Z,15.30
2019-02-23T07:08:49.410Z,17.00
2019-02-23T07:11:46.048Z,17.23
2019-02-23T07:17:38.640Z,15.37
2019-02-23T07:20:27.762Z,17.37
2019-02-23T07:23:03.612Z,16.20
2019-02-23T07:25:52.180Z,16.60
2019-02-23T07:28:40.108Z,16.23
2019-02-23T07:31:15.936Z,15.53
2019-02-23T07:34:11.839Z,17.63
2019-02-23T07:37:00.398Z,15.53
2019-02-23T07:40:23.787Z,14.90
2019-02-23T07:43:12.203Z,16.40
2019-02-23T07:50:04.445Z,15.10
2019-02-23T07:52:39.372Z,14.57
2019-02-23T07:58:11.770Z,15.10
2019-02-23T08:01:05.298Z,14.73
2019-02-23T08:03:41.778Z,16.70
2019-02-23T08:06:32.285Z,14.23
2019-02-23T08:09:27.258Z,15.23
2019-02-23T08:16:04.513Z,14.00
2019-02-23T08:18:49.507Z,14.23
2019-02-23T08:21:24.406Z,13.60
2019-02-23T08:23:59.314Z,14.40
2019-02-23T08:26:34.351Z,14.20
2019-02-23T08:29:13.935Z,14.20
2019-02-23T08:32:03.364Z,14.60
2019-02-23T08:38:19.241Z,13.60
2019-02-23T08:41:08.025Z,13.67
2019-02-23T08:43:46.337Z,14.70
2019-02-23T08:46:26.474Z,14.47
2019-02-23T08:49:02.507Z,13.60
2019-02-23T08:51:40.172Z,14.97
2019-02-23T08:54:16.006Z,13.00
2019-02-23T08:56:52.552Z,14.07
2019-02-23T08:59:28.468Z,13.40
2019-02-23T09:02:19.280Z,12.53
2019-02-23T09:04:56.479Z,12.83
2019-02-23T09:07:32.949Z,12.20
2019-02-23T09:10:12.135Z,12.43
2019-02-23T09:12:47.376Z,13.33
2019-02-23T09:15:25.321Z,12.93
2019-02-23T09:18:00.592Z,12.57
2019-02-23T09:20:39.237Z,11.70
2019-02-23T09:23:16.682Z,13.17
2019-02-23T09:25:58.938Z,12.50
2019-02-23T09:28:34.686Z,12.67
2019-02-23T09:31:11.163Z,13.00
2019-02-23T09:33:46.153Z,13.47
2019-02-23T09:36:42.223Z,12.80
2019-02-23T09:39:17.215Z,13.10
2019-02-23T09:41:54.057Z,12.50
2019-02-23T09:44:30.165Z,12.70
2019-02-23T09:47:05.673Z,12.80
2019-02-23T09:49:41.903Z,12.47
2019-02-23T09:52:17.108Z,13.13
2019-02-23T09:54:52.263Z,12.10
2019-02-23T09:57:27.369Z,12.00
2019-02-23T10:00:03.466Z,12.23
2019-02-23T10:02:39.086Z,13.53
2019-02-23T10:05:13.779Z,12.53
2019-02-23T10:07:49.569Z,11.67
2019-02-23T10:10:25.583Z,13.70
2019-02-23T10:13:02.436Z,12.83
2019-02-23T10:15:37.557Z,13.10
2019-02-23T10:18:12.537Z,13.30
2019-02-23T10:20:47.945Z,13.53
2019-02-23T10:23:23.259Z,13.30
2019-02-23T10:26:35.066Z,11.83
2019-02-23T10:29:03.793Z,13.40
2019-02-23T10:31:38.837Z,14.33
2019-02-23T10:34:14.069Z,12.70
2019-02-23T10:36:49.525Z,13.10
2019-02-23T10:39:24.459Z,12.77
2019-02-23T10:41:59.359Z,13.00
2019-02-23T10:44:34.562Z,13.03
2019-02-23T10:47:09.480Z,12.20
2019-02-23T10:49:44.428Z,14.23
2019-02-23T10:52:19.553Z,13.77
2019-02-23T10:54:54.728Z,12.53
2019-02-23T10:57:29.819Z,12.63
2019-02-23T11:00:07.478Z,13.00
2019-02-23T11:02:42.817Z,11.60
2019-02-23T11:05:18.359Z,12.77
2019-02-23T11:07:53.487Z,12.57
2019-02-23T11:10:29.555Z,13.70
2019-02-23T11:13:04.561Z,12.13
2019-02-23T11:15:39.558Z,13.17
2019-02-23T11:18:14.483Z,12.40
2019-02-23T11:20:50.222Z,12.30
2019-02-23T11:23:25.197Z,13.10
2019-02-23T11:26:00.237Z,13.83
2019-02-23T11:28:35.388Z,12.00
2019-02-23T11:31:10.327Z,13.07
2019-02-23T11:33:45.111Z,13.27
2019-02-23T11:36:20.937Z,13.97
2019-02-23T11:40:17.455Z,13.60
2019-02-23T11:42:36.018Z,12.27
2019-02-23T11:45:11.260Z,14.03
2019-02-23T11:47:46.443Z,12.73
2019-02-23T11:50:21.433Z,12.53
2019-02-23T11:52:56.477Z,12.80
2019-02-23T11:55:31.375Z,13.60
2019-02-23T11:58:06.365Z,12.97
2019-02-23T12:00:41.415Z,11.87
2019-02-23T12:03:16.355Z,13.67
2019-02-23T12:05:51.339Z,12.97
2019-02-23T12:08:26.325Z,12.23
2019-02-23T12:11:01.477Z,12.33
2019-02-23T12:13:36.509Z,13.13
2019-02-23T12:16:13.979Z,13.00
2019-02-23T12:18:50.043Z,13.37
2019-02-23T12:21:24.871Z,13.27
2019-02-23T12:24:05.952Z,12.33
2019-02-23T12:26:53.639Z,14.75
2019-02-23T12:29:33.993Z,13.60
2019-02-23T12:32:12.813Z,12.90
2019-02-23T12:34:52.209Z,13.10
2019-02-23T12:37:31.721Z,13.87
2019-02-23T12:40:07.093Z,11.93
2019-02-23T12:42:42.219Z,12.03
2019-02-23T12:45:17.233Z,12.43
2019-02-23T12:47:54.755Z,11.73
2019-02-23T12:50:33.484Z,13.67
2019-02-23T12:53:11.099Z,13.80
2019-02-23T12:55:52.530Z,13.57
2019-02-23T12:58:27.967Z,12.60
2019-02-23T13:01:03.228Z,12.90
2019-02-23T13:03:38.455Z,12.67
2019-02-23T13:06:14.032Z,12.97
2019-02-23T13:09:21.620Z,13.77
2019-02-23T13:13:16.117Z,12.30
2019-02-23T13:16:33.065Z,12.57
2019-02-23T13:20:20.499Z,12.93
2019-02-23T13:23:56.759Z,12.87
2019-02-23T13:27:18.557Z,14.00
2019-02-23T13:31:02.753Z,13.07
2019-02-23T13:34:18.861Z,13.67
2019-02-23T13:37:38.527Z,12.73
2019-02-23T13:40:51.879Z,13.20
2019-02-23T13:44:35.707Z,13.30
2019-02-23T13:48:29.184Z,12.60
2019-02-23T13:51:52.313Z,12.70
2019-02-23T13:55:42.063Z,13.10
2019-02-23T13:59:09.958Z,14.17
2019-02-23T14:02:53.357Z,13.00
2019-02-23T14:06:31.739Z,13.90
2019-02-23T14:10:20.296Z,12.67
2019-02-23T14:13:42.447Z,13.00
2019-02-23T14:16:55.782Z,12.93
2019-02-23T14:20:43.095Z,13.00
2019-02-23T14:24:34.913Z,12.73
2019-02-23T14:28:22.857Z,13.73
2019-02-23T14:31:23.444Z,14.47
2019-02-23T14:34:45.847Z,13.80
2019-02-23T14:38:16.892Z,13.17
2019-02-23T14:41:55.650Z,12.13
2019-02-23T14:45:40.361Z,12.87
2019-02-23T14:48:57.407Z,12.80
2019-02-23T14:52:20.604Z,13.23
2019-02-23T14:55:08.053Z,14.30
2019-02-23T14:58:35.217Z,13.37
2019-02-23T15:02:15.973Z,13.10
2019-02-23T15:05:37.704Z,12.70
2019-02-23T15:09:09.155Z,11.90
2019-02-23T15:12:19.650Z,12.30
2019-02-23T15:16:17.480Z,12.40
2019-02-23T15:20:01.847Z,12.43
2019-02-23T15:23:22.798Z,13.20
2019-02-23T15:26:42.273Z,12.07
2019-02-23T15:30:09.824Z,12.67
2019-02-23T15:33:55.825Z,12.67
2019-02-23T15:37:14.429Z,12.00
2019-02-23T15:40:57.964Z,12.17
2019-02-23T15:43:53.085Z,11.77
2019-02-23T15:47:30.237Z,11.53
2019-02-23T15:50:12.904Z,12.13
2019-02-23T15:52:44.332Z,10.30
2019-02-23T15:55:27.578Z,12.10
2019-02-23T15:57:56.641Z,11.33
2019-02-23T16:00:34.939Z,12.30
2019-02-23T16:03:09.391Z,12.07
2019-02-23T16:05:44.509Z,12.00
2019-02-23T16:08:19.565Z,12.20
2019-02-23T16:10:54.561Z,12.47
2019-02-23T16:13:29.775Z,12.57
2019-02-23T16:16:04.974Z,11.70
2019-02-23T16:18:40.382Z,12.73
2019-02-23T16:21:15.402Z,13.90
2019-02-23T16:23:50.403Z,13.23
2019-02-23T16:26:26.615Z,12.27
2019-02-23T16:29:03.694Z,12.60
2019-02-23T16:31:38.724Z,13.07
2019-02-23T16:34:14.666Z,13.47
2019-02-23T16:36:49.807Z,13.53
2019-02-23T16:39:24.849Z,13.60
2019-02-23T16:42:03.870Z,13.07
2019-02-23T16:44:39.001Z,14.57
2019-02-23T16:47:14.116Z,16.07
2019-02-23T16:49:49.112Z,15.97
2019-02-23T16:52:26.309Z,17.00
2019-02-23T16:55:01.519Z,16.43
2019-02-23T16:57:36.626Z,15.17
2019-02-23T17:00:11.857Z,15.63
2019-02-23T17:02:46.958Z,16.13
2019-02-23T17:05:22.533Z,14.70
2019-02-23T17:07:57.927Z,14.07
2019-02-23T17:10:33.849Z,13.70
2019-02-23T17:13:08.912Z,14.07
2019-02-23T17:15:44.008Z,13.60
2019-02-23T17:18:19.350Z,13.70
2019-02-23T17:20:55.110Z,13.43
2019-02-23T17:23:30.181Z,14.13
2019-02-23T17:26:07.866Z,13.30
2019-02-23T17:28:42.796Z,12.97
2019-02-23T17:31:18.150Z,12.17
2019-02-23T17:33:53.116Z,12.53
2019-02-23T17:36:28.014Z,12.90
2019-02-23T17:39:03.250Z,13.63
2019-02-23T17:41:39.449Z,13.40
2019-02-23T17:44:14.385Z,13.17
2019-02-23T17:46:49.305Z,12.30
2019-02-23T17:49:24.266Z,13.80
2019-02-23T17:51:59.242Z,13.57
2019-02-23T17:54:34.516Z,13.27
2019-02-23T17:57:09.591Z,13.00
2019-02-23T17:59:44.611Z,13.90
2019-02-23T18:02:19.745Z,13.30
2019-02-23T18:04:55.495Z,12.30
2019-02-23T18:07:31.452Z,14.30
2019-02-23T18:10:07.337Z,14.03
2019-02-23T18:12:42.256Z,15.17
2019-02-23T18:15:18.330Z,14.07
2019-02-23T18:17:54.275Z,15.47
2019-02-23T18:20:29.254Z,14.60
2019-02-23T18:23:04.383Z,15.90
2019-02-23T18:25:39.409Z,16.80
2019-02-23T18:28:14.506Z,18.53
2019-02-23T18:30:49.478Z,17.33
2019-02-23T18:33:27.988Z,17.57
2019-02-23T18:36:03.039Z,19.40
2019-02-23T18:38:38.064Z,18.17
2019-02-23T18:41:12.935Z,18.20
2019-02-23T18:43:47.944Z,17.83
2019-02-23T18:46:23.798Z,18.10
2019-02-23T18:48:59.639Z,16.70
2019-02-23T18:51:35.456Z,16.20
2019-02-23T18:54:10.373Z,15.27
2019-02-23T18:56:52.085Z,14.80
2019-02-23T18:59:41.301Z,14.13
2019-02-23T19:02:17.184Z,15.50
2019-02-23T19:04:52.180Z,14.00
2019-02-23T19:07:28.053Z,13.20
2019-02-23T19:15:06.377Z,12.93
2019-02-23T19:17:57.807Z,15.10
2019-02-23T19:20:33.559Z,16.23
2019-02-23T19:23:11.251Z,18.83
2019-02-23T19:25:54.588Z,19.87
2019-02-23T19:28:29.617Z,18.67
2019-02-23T19:31:05.558Z,19.20
2019-02-23T19:33:41.463Z,20.70
2019-02-23T19:36:16.449Z,20.93
2019-02-23T19:38:52.185Z,21.77
2019-02-23T19:41:28.178Z,23.43
2019-02-23T19:44:07.445Z,19.87
2019-02-23T19:47:42.940Z,19.67
2019-02-23T19:50:26.763Z,17.90
2019-02-23T19:53:02.630Z,18.20
2019-02-23T19:59:02.799Z,16.60
2019-02-23T20:01:41.081Z,17.80
2019-02-23T20:04:16.950Z,18.13
2019-02-23T20:06:51.907Z,16.27
2019-02-23T20:09:26.936Z,16.67
2019-02-23T20:12:01.990Z,16.57
2019-02-23T20:14:46.832Z,16.33
2019-02-23T20:17:21.743Z,16.73
2019-02-23T20:19:57.496Z,16.53
2019-02-23T20:22:32.593Z,16.13
2019-02-23T20:25:08.176Z,17.50
2019-02-23T20:27:44.511Z,16.37
2019-02-23T20:30:20.289Z,17.60
2019-02-23T20:32:55.234Z,17.07
2019-02-23T20:35:32.076Z,16.53
2019-02-23T20:38:06.875Z,16.30
2019-02-23T20:40:41.784Z,16.10
2019-02-23T20:43:16.711Z,15.23
2019-02-23T20:45:51.563Z,15.50
2019-02-23T20:48:26.541Z,16.17
2019-02-23T20:51:01.602Z,14.60
2019-02-23T20:53:36.590Z,16.70
2019-02-23T20:56:11.568Z,16.00
2019-02-23T20:58:46.751Z,17.30
2019-02-23T21:01:21.788Z,16.57
2019-02-23T21:03:57.620Z,16.93
2019-02-23T21:06:32.626Z,17.63
2019-02-23T21:09:09.097Z,17.47
2019-02-23T21:11:45.702Z,16.20
2019-02-23T21:14:20.645Z,15.70
2019-02-23T21:18:15.363Z,15.47
2019-02-23T21:20:51.678Z,15.60
2019-02-23T21:23:28.149Z,14.27
2019-02-23T21:26:06.497Z,14.77
2019-02-23T21:29:20.354Z,14.70
2019-02-23T21:33:21.070Z,13.73
2019-02-23T21:36:02.689Z,13.70
2019-02-23T21:38:37.865Z,13.20
2019-02-23T21:41:13.614Z,12.50
2019-02-23T21:43:49.415Z,12.93
2019-02-23T21:56:25.058Z,12.37
2019-02-23T21:59:17.855Z,11.80
2019-02-23T22:01:57.084Z,11.83
2019-02-23T22:04:32.060Z,12.70
2019-02-23T22:07:07.921Z,12.70
2019-02-23T22:09:57.010Z,12.70
2019-02-23T22:12:32.820Z,13.27
2019-02-23T22:15:13.703Z,13.30
2019-02-23T22:17:51.373Z,11.20
2019-02-23T22:20:28.572Z,11.43
2019-02-23T22:23:04.794Z,11.33
2019-02-23T22:25:40.516Z,12.93
2019-02-23T22:28:16.270Z,10.67
2019-02-23T22:30:52.049Z,12.00
2019-02-23T22:33:26.967Z,11.20
2019-02-23T22:36:02.047Z,12.17
2019-02-23T22:38:36.976Z,11.73
2019-02-23T22:41:39.627Z,12.57
2019-02-23T22:44:20.971Z,10.70
2019-02-23T22:47:14.941Z,11.13
2019-02-23T22:49:50.710Z,11.43
2019-02-23T22:52:54.286Z,10.23
2019-02-23T22:55:35.218Z,10.73
2019-02-23T22:58:11.030Z,11.70
2019-02-23T23:03:52.609Z,11.53
2019-02-23T23:15:12.495Z,11.60
2019-02-23T23:22:21.934Z,11.40
2019-02-23T23:28:37.429Z,12.10
2019-02-23T23:34:32.107Z,10.80
2019-02-23T23:44:45.067Z,10.50
2019-02-23T23:50:43.455Z,10.73
2019-02-23T23:53:20.179Z,10.30
2019-02-23T23:56:14.304Z,11.57
